createdAt,value
2023-02-11T00:01:37.960Z,83.03
2023-02-11T00:04:08.402Z,83.00
2023-02-11T00:06:38.203Z,83.25
2023-02-11T00:09:07.303Z,83.00
2023-02-11T00:11:36.459Z,83.14
2023-02-11T00:14:07.874Z,83.44
2023-02-11T00:16:37.904Z,83.41
2023-02-11T00:19:06.932Z,83.50
2023-02-11T00:21:35.984Z,83.38
2023-02-11T00:24:04.699Z,83.33
2023-02-11T00:26:35.486Z,83.33
2023-02-11T00:29:04.482Z,83.25
2023-02-11T00:31:34.143Z,83.05
2023-02-11T00:34:04.183Z,83.08
2023-02-11T00:36:33.162Z,83.08
2023-02-11T00:39:01.688Z,82.97
2023-02-11T00:41:30.407Z,82.72
2023-02-11T00:44:01.698Z,82.78
2023-02-11T00:46:30.604Z,82.72
2023-02-11T00:48:58.998Z,82.43
2023-02-11T00:51:30.103Z,82.83
2023-02-11T00:53:58.877Z,82.43
2023-02-11T00:56:27.358Z,82.49
2023-02-11T00:58:57.697Z,82.48
2023-02-11T01:01:26.414Z,82.55
2023-02-11T01:03:54.747Z,82.31
2023-02-11T01:06:25.176Z,82.36
2023-02-11T01:08:55.224Z,82.13
2023-02-11T01:11:25.283Z,82.30
2023-02-11T01:13:53.720Z,82.56
2023-02-11T01:16:23.629Z,82.64
2023-02-11T01:18:55.175Z,82.11
2023-02-11T01:21:23.587Z,82.45
2023-02-11T01:23:54.214Z,82.28
2023-02-11T01:26:23.284Z,82.34
2023-02-11T01:28:51.855Z,82.40
2023-02-11T01:31:20.256Z,82.44
2023-02-11T01:33:49.430Z,82.20
2023-02-11T01:36:17.897Z,82.52
2023-02-11T01:38:46.307Z,82.41
2023-02-11T01:41:16.168Z,82.13
2023-02-11T01:43:47.264Z,82.43
2023-02-11T01:46:35.033Z,82.33
2023-02-11T01:49:07.362Z,82.49
2023-02-11T01:51:40.621Z,82.48
2023-02-11T01:54:28.894Z,82.50
2023-02-11T01:57:18.655Z,82.25
2023-02-11T01:59:58.452Z,82.03
2023-02-11T02:02:35.800Z,82.26
2023-02-11T02:05:11.747Z,82.52
2023-02-11T02:07:47.307Z,82.09
2023-02-11T02:10:20.371Z,82.35
2023-02-11T02:12:50.438Z,82.19
2023-02-11T02:15:24.310Z,82.41
2023-02-11T02:18:00.893Z,82.21
2023-02-11T02:21:04.031Z,82.60
2023-02-11T02:23:56.003Z,83.32
2023-02-11T02:27:03.044Z,82.91
2023-02-11T02:30:17.875Z,82.66
2023-02-11T02:33:02.152Z,83.15
2023-02-11T02:35:41.651Z,83.11
2023-02-11T02:38:17.357Z,82.86
2023-02-11T02:40:50.351Z,83.09
2023-02-11T02:43:20.254Z,83.08
2023-02-11T02:45:49.010Z,82.80
2023-02-11T02:48:30.204Z,83.16
2023-02-11T02:51:14.420Z,82.86
2023-02-11T02:53:52.549Z,83.08
2023-02-11T02:56:32.819Z,82.90
2023-02-11T02:59:16.287Z,82.74
2023-02-11T03:01:52.613Z,82.66
2023-02-11T03:04:30.789Z,82.77
2023-02-11T03:07:04.303Z,82.68
2023-02-11T03:09:38.739Z,82.62
2023-02-11T03:12:09.032Z,82.47
2023-02-11T03:14:37.741Z,82.78
2023-02-11T03:17:07.793Z,82.40
2023-02-11T03:19:40.326Z,82.75
2023-02-11T03:22:09.939Z,82.55
2023-02-11T03:24:41.128Z,82.59
2023-02-11T03:27:16.423Z,82.71
2023-02-11T03:29:51.781Z,82.55
2023-02-11T03:32:28.111Z,82.39
2023-02-11T03:35:01.409Z,82.18
2023-02-11T03:37:35.542Z,82.31
2023-02-11T03:40:09.083Z,82.36
2023-02-11T03:42:41.886Z,82.46
2023-02-11T03:45:15.403Z,82.29
2023-02-11T03:47:50.122Z,82.25
2023-02-11T03:50:22.764Z,82.20
2023-02-11T03:52:52.394Z,82.20
2023-02-11T03:55:25.971Z,82.42
2023-02-11T03:57:54.793Z,82.07
2023-02-11T04:00:30.701Z,82.40
2023-02-11T04:02:59.407Z,82.41
2023-02-11T04:05:29.228Z,82.43
2023-02-11T04:07:57.754Z,82.20
2023-02-11T04:10:26.301Z,81.85
2023-02-11T04:12:55.098Z,82.26
2023-02-11T04:15:25.053Z,82.09
2023-02-11T04:17:53.683Z,82.38
2023-02-11T04:20:22.379Z,82.25
2023-02-11T04:22:52.776Z,82.45
2023-02-11T04:25:21.613Z,82.23
2023-02-11T04:27:49.944Z,82.47
2023-02-11T04:30:19.077Z,82.40
2023-02-11T04:32:47.433Z,82.27
2023-02-11T04:35:15.813Z,82.11
2023-02-11T04:37:44.481Z,82.38
2023-02-11T04:40:14.739Z,82.35
2023-02-11T04:42:43.117Z,82.43
2023-02-11T04:45:12.258Z,82.23
2023-02-11T04:47:40.641Z,81.85
2023-02-11T04:50:09.512Z,81.80
2023-02-11T04:52:38.443Z,81.71
2023-02-11T04:55:07.912Z,81.36
2023-02-11T04:57:37.624Z,81.65
2023-02-11T05:00:07.776Z,81.85
2023-02-11T05:02:36.143Z,81.65
2023-02-11T05:05:04.651Z,81.80
2023-02-11T05:07:33.542Z,81.45
2023-02-11T05:10:01.942Z,81.46
2023-02-11T05:12:30.624Z,81.56
2023-02-11T05:15:00.767Z,81.50
2023-02-11T05:17:29.190Z,81.54
2023-02-11T05:19:57.537Z,81.50
2023-02-11T05:22:26.002Z,81.63
2023-02-11T05:24:54.660Z,81.71
2023-02-11T05:27:23.321Z,81.06
2023-02-11T05:29:51.907Z,81.26
2023-02-11T05:32:21.993Z,81.54
2023-02-11T05:34:50.528Z,81.83
2023-02-11T05:37:19.258Z,82.16
2023-02-11T05:39:47.733Z,82.02
2023-02-11T05:42:16.127Z,82.10
2023-02-11T05:44:44.507Z,82.40
2023-02-11T05:47:13.212Z,81.81
2023-02-11T05:49:43.245Z,81.97
2023-02-11T05:52:12.040Z,81.98
2023-02-11T05:54:40.746Z,82.26
2023-02-11T05:57:09.238Z,82.23
2023-02-11T05:59:37.601Z,82.60
2023-02-11T06:02:08.020Z,82.10
2023-02-11T06:04:36.799Z,82.17
2023-02-11T06:07:06.564Z,81.94
2023-02-11T06:09:35.516Z,82.07
2023-02-11T06:12:03.814Z,82.09
2023-02-11T06:14:34.355Z,82.16
2023-02-11T06:17:03.360Z,82.21
2023-02-11T06:19:31.954Z,82.41
2023-02-11T06:22:01.077Z,82.21
2023-02-11T06:24:51.339Z,82.12
2023-02-11T06:27:19.663Z,82.35
2023-02-11T06:29:48.249Z,82.22
2023-02-11T06:32:35.683Z,82.05
2023-02-11T06:35:05.103Z,82.24
2023-02-11T06:37:34.932Z,82.54
2023-02-11T06:40:05.219Z,82.39
2023-02-11T06:42:34.671Z,82.56
2023-02-11T06:45:02.985Z,82.45
2023-02-11T06:47:31.536Z,82.81
2023-02-11T06:50:00.566Z,82.83
2023-02-11T06:52:29.077Z,82.63
2023-02-11T06:54:57.527Z,82.86
2023-02-11T06:57:27.752Z,83.01
2023-02-11T06:59:56.142Z,82.88
2023-02-11T07:02:24.970Z,82.95
2023-02-11T07:04:53.914Z,83.06
2023-02-11T07:07:22.633Z,82.98
2023-02-11T07:09:51.102Z,83.06
2023-02-11T07:12:19.738Z,83.14
2023-02-11T07:14:49.836Z,83.34
2023-02-11T07:17:18.154Z,83.26
2023-02-11T07:19:46.846Z,83.06
2023-02-11T07:22:15.336Z,83.01
2023-02-11T07:24:43.875Z,83.32
2023-02-11T07:27:12.322Z,83.12
2023-02-11T07:29:40.740Z,83.05
2023-02-11T07:32:10.940Z,82.95
2023-02-11T07:34:39.471Z,82.80
2023-02-11T07:37:07.811Z,83.00
2023-02-11T07:39:36.745Z,83.00
2023-02-11T07:42:06.986Z,82.81
2023-02-11T07:44:37.045Z,83.29
2023-02-11T07:47:05.648Z,83.25
2023-02-11T07:49:35.935Z,83.39
2023-02-11T07:52:04.531Z,83.45
2023-02-11T07:54:33.386Z,83.36
2023-02-11T07:57:02.104Z,83.24
2023-02-11T07:59:30.549Z,83.62
2023-02-11T08:01:59.105Z,83.47
2023-02-11T08:04:28.099Z,83.41
2023-02-11T08:06:59.357Z,83.06
2023-02-11T08:09:27.846Z,83.08
2023-02-11T08:11:56.247Z,83.26
2023-02-11T08:14:25.469Z,83.27
2023-02-11T08:16:53.940Z,82.96
2023-02-11T08:19:22.323Z,83.02
2023-02-11T08:21:51.060Z,82.85
2023-02-11T08:24:21.060Z,82.53
2023-02-11T08:26:49.377Z,82.44
2023-02-11T08:29:18.409Z,82.29
2023-02-11T08:31:50.219Z,82.15
2023-02-11T08:34:20.205Z,82.50
2023-02-11T08:36:49.884Z,82.52
2023-02-11T08:39:21.255Z,82.30
2023-02-11T08:41:51.002Z,81.97
2023-02-11T08:44:20.156Z,81.67
2023-02-11T08:46:49.455Z,82.14
2023-02-11T08:49:18.216Z,81.84
2023-02-11T08:51:47.584Z,81.88
2023-02-11T08:54:16.821Z,81.78
2023-02-11T08:56:47.868Z,81.77
2023-02-11T08:59:17.909Z,81.58
2023-02-11T09:01:47.443Z,81.55
2023-02-11T09:04:16.164Z,81.39
2023-02-11T09:06:44.725Z,81.43
2023-02-11T09:09:14.817Z,81.03
2023-02-11T09:11:45.388Z,80.79
2023-02-11T09:14:21.125Z,80.17
2023-02-11T09:16:50.511Z,79.67
2023-02-11T09:19:19.498Z,79.13
2023-02-11T09:21:48.159Z,79.07
2023-02-11T09:24:16.656Z,77.31
2023-02-11T09:26:45.572Z,76.59
2023-02-11T09:29:14.414Z,75.76
2023-02-11T09:31:44.155Z,75.57
2023-02-11T09:34:13.174Z,75.81
2023-02-11T09:36:42.102Z,74.17
2023-02-11T09:39:14.858Z,72.89
2023-02-11T09:42:24.958Z,72.10
2023-02-11T09:44:54.299Z,71.59
2023-02-11T09:47:32.024Z,70.36
2023-02-11T09:50:04.842Z,69.58
2023-02-11T09:52:41.371Z,66.17
2023-02-11T09:55:20.380Z,63.63
2023-02-11T09:57:49.656Z,64.12
2023-02-11T10:00:22.953Z,62.91
2023-02-11T10:03:16.244Z,63.63
2023-02-11T10:05:59.678Z,61.50
2023-02-11T10:08:36.333Z,60.85
2023-02-11T10:11:22.679Z,61.23
2023-02-11T10:14:08.206Z,61.06
2023-02-11T10:16:54.593Z,57.92
2023-02-11T10:19:40.031Z,55.68
2023-02-11T10:22:13.948Z,56.90
2023-02-11T10:24:44.717Z,54.90
2023-02-11T10:27:17.806Z,55.22
2023-02-11T10:29:52.470Z,54.95
2023-02-11T10:32:36.805Z,52.79
2023-02-11T10:35:16.493Z,54.38
2023-02-11T10:37:45.441Z,53.23
2023-02-11T10:40:16.062Z,53.44
2023-02-11T10:42:48.460Z,53.11
2023-02-11T10:45:18.919Z,52.08
2023-02-11T10:47:47.552Z,52.67
2023-02-11T10:50:25.946Z,52.56
2023-02-11T10:53:14.655Z,52.82
2023-02-11T10:55:56.022Z,54.40
2023-02-11T10:58:33.403Z,55.46
2023-02-11T11:01:22.439Z,54.47
2023-02-11T11:03:57.137Z,54.81
2023-02-11T11:06:39.751Z,53.99
2023-02-11T11:09:07.840Z,54.02
2023-02-11T11:11:53.705Z,55.65
2023-02-11T11:14:26.359Z,55.82
2023-02-11T11:16:55.574Z,55.02
2023-02-11T11:19:26.029Z,54.77
2023-02-11T11:21:57.785Z,54.17
2023-02-11T11:24:30.520Z,55.01
2023-02-11T11:27:01.101Z,55.52
2023-02-11T11:29:36.326Z,56.52
2023-02-11T11:32:08.774Z,56.71
2023-02-11T11:34:38.700Z,57.17
2023-02-11T11:37:15.376Z,56.34
2023-02-11T11:39:44.213Z,56.06
2023-02-11T11:42:27.383Z,56.38
2023-02-11T11:45:00.845Z,56.45
2023-02-11T11:47:37.300Z,57.37
2023-02-11T11:50:32.009Z,56.57
2023-02-11T11:53:10.697Z,56.27
2023-02-11T11:55:43.448Z,55.86
2023-02-11T11:58:18.046Z,56.45
2023-02-11T12:00:55.734Z,55.79
2023-02-11T12:03:48.885Z,55.94
2023-02-11T12:06:32.279Z,56.10
2023-02-11T12:09:14.676Z,55.76
2023-02-11T12:11:55.043Z,55.39
2023-02-11T12:14:35.235Z,55.96
2023-02-11T12:17:10.810Z,56.75
2023-02-11T12:20:02.930Z,56.33
2023-02-11T12:22:50.820Z,56.18
2023-02-11T12:25:29.407Z,56.72
2023-02-11T12:28:08.245Z,56.89
2023-02-11T12:30:58.750Z,57.21
2023-02-11T12:33:42.343Z,57.04
2023-02-11T12:36:19.962Z,57.38
2023-02-11T12:39:04.824Z,57.57
2023-02-11T12:42:21.058Z,57.68
2023-02-11T12:45:06.079Z,57.93
2023-02-11T12:47:43.948Z,58.96
2023-02-11T12:50:24.496Z,58.29
2023-02-11T12:53:08.545Z,58.29
2023-02-11T12:55:41.490Z,58.00
2023-02-11T12:58:17.569Z,58.33
2023-02-11T13:00:51.239Z,58.63
2023-02-11T13:03:26.527Z,58.58
2023-02-11T13:05:58.379Z,59.35
2023-02-11T13:08:32.092Z,57.64
2023-02-11T13:11:03.720Z,58.70
2023-02-11T13:13:38.509Z,57.71
2023-02-11T13:16:09.621Z,57.36
2023-02-11T13:18:53.520Z,57.99
2023-02-11T13:21:49.599Z,57.73
2023-02-11T13:24:25.881Z,57.66
2023-02-11T13:27:06.338Z,57.36
2023-02-11T13:29:51.760Z,57.20
2023-02-11T13:32:20.205Z,57.64
2023-02-11T13:35:02.015Z,58.02
2023-02-11T13:37:38.342Z,56.94
2023-02-11T13:40:21.720Z,56.74
2023-02-11T13:42:53.965Z,57.18
2023-02-11T13:45:37.507Z,55.93
2023-02-11T13:48:24.742Z,55.92
2023-02-11T13:50:58.028Z,55.41
2023-02-11T13:53:27.622Z,57.05
2023-02-11T13:56:08.443Z,57.24
2023-02-11T13:58:40.126Z,57.38
2023-02-11T14:01:10.489Z,57.59
2023-02-11T14:03:57.515Z,56.58
2023-02-11T14:07:02.236Z,56.99
2023-02-11T14:09:42.030Z,56.91
2023-02-11T14:12:32.809Z,58.72
2023-02-11T14:15:17.712Z,59.54
2023-02-11T14:17:47.943Z,59.37
2023-02-11T14:20:44.124Z,59.96
2023-02-11T14:23:27.281Z,59.88
2023-02-11T14:26:21.218Z,58.83
2023-02-11T14:28:53.109Z,60.09
2023-02-11T14:31:25.958Z,59.98
2023-02-11T14:34:09.041Z,60.59
2023-02-11T14:36:56.000Z,60.01
2023-02-11T14:39:38.705Z,60.08
2023-02-11T14:42:07.785Z,59.71
2023-02-11T14:44:36.722Z,60.01
2023-02-11T14:47:05.039Z,59.64
2023-02-11T14:49:39.361Z,59.54
2023-02-11T14:52:17.149Z,59.26
2023-02-11T14:54:46.654Z,60.18
2023-02-11T14:57:17.157Z,60.71
2023-02-11T14:59:58.904Z,59.37
2023-02-11T15:02:32.158Z,60.03
2023-02-11T15:05:20.137Z,60.83
2023-02-11T15:07:50.929Z,61.65
2023-02-11T15:10:29.813Z,61.69
2023-02-11T15:13:00.335Z,61.59
2023-02-11T15:15:29.415Z,62.26
2023-02-11T15:18:01.929Z,62.41
2023-02-11T15:20:35.966Z,62.39
2023-02-11T15:23:08.689Z,62.52
2023-02-11T15:25:44.512Z,62.62
2023-02-11T15:28:23.185Z,63.16
2023-02-11T15:30:59.696Z,62.88
2023-02-11T15:33:30.130Z,62.66
2023-02-11T15:36:01.027Z,62.99
2023-02-11T15:38:30.463Z,62.62
2023-02-11T15:41:01.051Z,63.10
2023-02-11T15:43:43.090Z,62.46
2023-02-11T15:46:13.259Z,62.87
2023-02-11T15:48:45.339Z,62.30
2023-02-11T15:51:28.788Z,63.02
2023-02-11T15:53:59.087Z,63.13
2023-02-11T15:56:32.950Z,62.79
2023-02-11T15:59:10.311Z,62.23
2023-02-11T16:01:40.197Z,61.83
2023-02-11T16:04:08.947Z,61.93
2023-02-11T16:06:40.386Z,61.82
2023-02-11T16:09:26.632Z,61.62
2023-02-11T16:11:58.162Z,61.52
2023-02-11T16:14:32.399Z,61.63
2023-02-11T16:17:03.618Z,61.66
2023-02-11T16:19:33.278Z,62.17
2023-02-11T16:22:08.923Z,62.74
2023-02-11T16:24:38.962Z,62.63
2023-02-11T16:27:09.795Z,62.74
2023-02-11T16:29:38.484Z,63.02
2023-02-11T16:32:09.701Z,63.05
2023-02-11T16:34:38.382Z,63.00
2023-02-11T16:37:08.864Z,63.57
2023-02-11T16:39:37.033Z,63.26
2023-02-11T16:42:07.641Z,63.44
2023-02-11T16:44:36.433Z,63.42
2023-02-11T16:47:06.069Z,63.64
2023-02-11T16:49:38.321Z,63.71
2023-02-11T16:52:14.137Z,64.08
2023-02-11T16:54:42.884Z,63.99
2023-02-11T16:57:15.815Z,63.97
2023-02-11T16:59:44.053Z,64.49
2023-02-11T17:02:16.795Z,64.38
2023-02-11T17:04:45.845Z,65.08
2023-02-11T17:07:15.661Z,65.54
2023-02-11T17:09:43.896Z,66.31
2023-02-11T17:12:12.047Z,66.40
2023-02-11T17:14:40.282Z,67.05
2023-02-11T17:17:08.390Z,67.47
2023-02-11T17:19:36.832Z,68.18
2023-02-11T17:22:05.317Z,68.44
2023-02-11T17:24:35.038Z,68.71
2023-02-11T17:27:03.266Z,69.51
2023-02-11T17:29:32.420Z,69.67
2023-02-11T17:32:00.699Z,70.13
2023-02-11T17:34:29.684Z,70.22
2023-02-11T17:37:00.240Z,70.46
2023-02-11T17:39:28.861Z,71.10
2023-02-11T17:41:58.516Z,70.63
2023-02-11T17:44:26.961Z,70.58
2023-02-11T17:46:55.189Z,71.25
2023-02-11T17:49:23.568Z,71.50
2023-02-11T17:51:51.761Z,71.32
2023-02-11T17:54:21.106Z,71.54
2023-02-11T17:56:50.951Z,71.85
2023-02-11T17:59:21.515Z,71.99
2023-02-11T18:01:50.251Z,72.32
2023-02-11T18:04:20.325Z,72.71
2023-02-11T18:06:50.387Z,73.22
2023-02-11T18:09:18.883Z,73.27
2023-02-11T18:11:48.514Z,73.56
2023-02-11T18:14:16.840Z,73.69
2023-02-11T18:16:47.595Z,74.42
2023-02-11T18:19:16.186Z,74.59
2023-02-11T18:21:44.776Z,74.62
2023-02-11T18:24:13.084Z,75.01
2023-02-11T18:26:42.105Z,75.38
2023-02-11T18:29:13.675Z,75.16
2023-02-11T18:31:42.387Z,75.48
2023-02-11T18:34:13.158Z,75.70
2023-02-11T18:36:41.536Z,75.68
2023-02-11T18:39:10.296Z,75.89
2023-02-11T18:41:40.829Z,76.33
2023-02-11T18:44:09.597Z,76.74
2023-02-11T18:46:38.260Z,76.39
2023-02-11T18:49:06.750Z,76.51
2023-02-11T18:51:36.451Z,76.83
2023-02-11T18:54:04.983Z,76.62
2023-02-11T18:56:33.360Z,76.91
2023-02-11T18:59:02.632Z,76.78
2023-02-11T19:01:33.880Z,77.02
2023-02-11T19:04:05.577Z,76.76
2023-02-11T19:07:05.509Z,77.08
2023-02-11T20:02:12.166Z,80.68
2023-02-11T20:04:40.934Z,80.61
2023-02-11T20:10:38.609Z,81.11
2023-02-11T20:16:11.812Z,80.88
2023-02-11T20:19:06.505Z,81.05
2023-02-11T20:21:47.746Z,80.96
2023-02-11T20:25:19.278Z,81.13
2023-02-11T20:28:37.117Z,80.92
2023-02-11T21:04:18.936Z,81.33
2023-02-11T21:14:44.899Z,81.67
2023-02-11T21:40:56.685Z,83.44
2023-02-11T21:46:26.362Z,82.99
2023-02-11T21:48:55.128Z,82.75
2023-02-11T21:51:25.306Z,82.62
2023-02-11T21:54:01.434Z,82.64
2023-02-11T21:56:34.475Z,82.38
2023-02-11T21:59:03.846Z,82.55
2023-02-11T22:01:35.452Z,82.10
2023-02-11T22:04:04.362Z,82.68
2023-02-11T22:06:36.951Z,82.85
2023-02-11T22:09:07.771Z,83.23
2023-02-11T22:11:36.942Z,83.03
2023-02-11T22:14:07.176Z,83.07
2023-02-11T22:16:35.944Z,82.78
2023-02-11T22:19:07.534Z,82.97
2023-02-11T22:21:36.307Z,82.87
2023-02-11T22:24:09.285Z,83.26
2023-02-11T22:26:39.883Z,83.01
2023-02-11T22:29:08.780Z,82.96
2023-02-11T22:31:37.509Z,83.12
2023-02-11T22:34:20.225Z,83.00
2023-02-11T22:36:58.177Z,83.76
2023-02-11T22:39:26.973Z,84.11
2023-02-11T22:41:57.651Z,84.41
2023-02-11T22:44:27.351Z,84.68
2023-02-11T22:46:58.663Z,84.88
2023-02-11T22:49:27.066Z,84.66
2023-02-11T22:51:56.725Z,84.80
2023-02-11T22:54:25.228Z,84.91
2023-02-11T22:56:54.438Z,84.99
2023-02-11T22:59:24.429Z,85.07
2023-02-11T23:01:52.966Z,84.76
2023-02-11T23:04:21.893Z,84.40
2023-02-11T23:06:50.632Z,84.23
2023-02-11T23:09:19.468Z,84.58
2023-02-11T23:11:49.529Z,84.74
2023-02-11T23:14:18.243Z,84.37
2023-02-11T23:16:52.670Z,84.22
2023-02-11T23:19:22.056Z,84.05
2023-02-11T23:21:52.977Z,84.05
2023-02-11T23:24:21.621Z,84.07
2023-02-11T23:26:51.656Z,84.29
2023-02-11T23:29:21.432Z,84.05
2023-02-11T23:31:52.768Z,83.90
2023-02-11T23:34:25.608Z,84.21
2023-02-11T23:36:54.966Z,84.22
2023-02-11T23:39:26.204Z,84.61
2023-02-11T23:41:59.612Z,84.78
2023-02-11T23:44:29.077Z,84.94
2023-02-11T23:47:38.171Z,84.69
2023-02-11T23:50:18.892Z,84.38
2023-02-11T23:53:09.850Z,84.37
2023-02-11T23:55:41.378Z,84.16
2023-02-11T23:58:14.845Z,83.95
